Time;durP1;ratioP1;P1;durP2;ratioP2;P2;SDS_P1;SDS_P2;PMS_P1;PMS_P2;Temp;Humidity;BMP_temperature;BMP_pressure;BME280_temperature;BME280_humidity;BME280_pressure;Samples;Min_cycle;Max_cycle;Signal;HPM_P1;HPM_P2
2022/11/21 00:01:26;;;;;;;156.10;47.40;;;;;;;1.18;100.00;100473.56;4930044;29;20036;-75
2022/11/21 00:03:51;;;;;;;160.43;48.40;;;;;;;1.16;100.00;100474.53;4929791;29;20103;-76
2022/11/21 00:06:17;;;;;;;164.65;49.08;;;;;;;1.17;100.00;100477.09;4931002;29;20067;-75
2022/11/21 00:08:43;;;;;;;193.80;47.50;;;;;;;1.19;100.00;100479.66;4930691;29;20078;-75
2022/11/21 00:11:09;;;;;;;146.82;48.30;;;;;;;1.31;100.00;100481.06;4928389;29;20042;-76
2022/11/21 00:13:34;;;;;;;148.50;44.92;;;;;;;1.40;100.00;100486.88;4912642;29;20043;-76
2022/11/21 00:16:04;;;;;;;200.93;51.60;;;;;;;1.32;100.00;100481.03;4929550;29;20488;-75
2022/11/21 00:18:31;;;;;;;149.35;44.63;;;;;;;1.23;100.00;100495.28;4928821;29;20060;-75
2022/11/21 00:20:56;;;;;;;167.85;47.53;;;;;;;1.23;100.00;100492.66;4930227;29;20051;-75
2022/11/21 00:23:24;;;;;;;166.15;47.42;;;;;;;1.17;100.00;100494.63;4929843;29;20038;-75
2022/11/21 00:25:50;;;;;;;158.63;48.08;;;;;;;1.24;100.00;100494.38;4929485;29;20647;-75
2022/11/21 00:28:15;;;;;;;160.40;45.40;;;;;;;1.17;100.00;100489.38;4932219;29;20043;-75
2022/11/21 00:30:41;;;;;;;163.63;46.67;;;;;;;1.17;100.00;100495.47;4940172;29;20047;-75
2022/11/21 00:33:06;;;;;;;159.27;47.65;;;;;;;1.29;100.00;100491.59;4929910;29;20896;-75
2022/11/21 00:35:31;;;;;;;156.57;47.30;;;;;;;1.16;100.00;100490.28;4930019;29;20035;-75
2022/11/21 00:37:57;;;;;;;150.10;44.67;;;;;;;1.17;100.00;100490.22;4929694;29;20052;-75
2022/11/21 00:40:22;;;;;;;182.55;46.90;;;;;;;1.22;100.00;100492.72;4912345;29;20035;-75
2022/11/21 00:42:48;;;;;;;174.20;46.88;;;;;;;1.18;100.00;100499.81;4929247;29;20036;-76
2022/11/21 00:45:13;;;;;;;174.93;46.10;;;;;;;1.16;100.00;100495.53;4937039;29;20047;-75
2022/11/21 00:47:38;;;;;;;211.85;50.10;;;;;;;1.20;100.00;100502.38;4929397;29;20054;-75
2022/11/21 00:50:04;;;;;;;166.77;45.33;;;;;;;1.20;100.00;100498.00;4929083;29;20043;-76
2022/11/21 00:52:30;;;;;;;162.35;45.92;;;;;;;1.14;100.00;100499.97;4929016;29;20040;-76
2022/11/21 00:54:55;;;;;;;147.35;45.58;;;;;;;1.16;100.00;100492.91;4929251;29;20040;-76
2022/11/21 00:57:21;;;;;;;164.20;46.33;;;;;;;1.21;100.00;100485.75;4911767;29;20047;-75
2022/11/21 00:59:46;;;;;;;188.00;49.75;;;;;;;1.16;100.00;100491.13;4928654;29;20051;-75
2022/11/21 01:02:12;;;;;;;137.88;44.28;;;;;;;1.12;100.00;100493.91;4895577;29;20082;-77
2022/11/21 01:04:38;;;;;;;136.85;41.42;;;;;;;1.07;100.00;100488.78;4911329;29;20690;-75
2022/11/21 01:07:03;;;;;;;149.95;44.45;;;;;;;1.14;100.00;100500.81;4911455;29;20043;-74
2022/11/21 01:09:29;;;;;;;147.23;44.67;;;;;;;1.10;100.00;100495.69;4928900;29;20075;-75
2022/11/21 01:11:55;;;;;;;149.80;46.67;;;;;;;1.09;100.00;100507.09;4929130;29;20965;-76
2022/11/21 01:14:21;;;;;;;143.88;44.90;;;;;;;1.13;100.00;100506.97;4929398;29;20054;-75
2022/11/21 01:16:46;;;;;;;142.73;43.50;;;;;;;1.10;100.00;100509.69;4911862;29;20043;-76
2022/11/21 01:19:12;;;;;;;146.27;42.85;;;;;;;1.10;100.00;100511.44;4929421;29;20056;-75
2022/11/21 01:21:40;;;;;;;143.73;41.67;;;;;;;1.09;100.00;100515.84;4930081;29;20047;-76
2022/11/21 01:24:05;;;;;;;161.00;44.75;;;;;;;1.18;100.00;100519.97;4929760;29;20047;-76
2022/11/21 01:26:32;;;;;;;154.57;44.55;;;;;;;1.13;100.00;100517.47;4916230;29;20046;-75
2022/11/21 01:28:57;;;;;;;156.55;44.03;;;;;;;1.10;100.00;100517.56;4912395;29;20032;-75
2022/11/21 01:31:28;;;;;;;153.95;45.45;;;;;;;1.06;100.00;100518.56;4932232;29;20610;-75
2022/11/21 01:33:55;;;;;;;159.05;46.00;;;;;;;1.04;100.00;100521.22;4930653;29;20586;-75
2022/11/21 01:36:31;;;;;;;170.73;47.40;;;;;;;1.11;100.00;100513.19;4912735;29;20035;-75
2022/11/21 01:39:00;;;;;;;173.15;50.63;;;;;;;1.09;100.00;100517.63;4930113;29;20494;-74
2022/11/21 01:41:32;;;;;;;156.25;45.95;;;;;;;1.05;100.00;100511.59;4929894;29;20047;-76
2022/11/21 01:44:05;;;;;;;181.27;50.70;;;;;;;1.07;100.00;100511.56;4932919;29;20043;-75
2022/11/21 01:46:31;;;;;;;195.75;52.53;;;;;;;1.12;100.00;100501.78;4929004;29;20047;-76
2022/11/21 01:49:05;;;;;;;176.23;47.20;;;;;;;1.12;100.00;100509.66;4942654;29;20097;-75
2022/11/21 01:51:43;;;;;;;174.90;50.03;;;;;;;1.03;100.00;100503.75;4920430;29;20781;-76
2022/11/21 01:54:19;;;;;;;185.68;50.45;;;;;;;1.02;100.00;100501.19;4931870;29;20071;-75
2022/11/21 01:57:08;;;;;;;184.25;50.28;;;;;;;1.09;100.00;100505.34;4928819;29;20482;-75
2022/11/21 01:59:39;;;;;;;168.57;49.15;;;;;;;0.99;100.00;100502.13;4928501;29;20051;-75
2022/11/21 02:02:09;;;;;;;178.50;49.42;;;;;;;1.01;100.00;100495.09;4929057;29;20075;-75
2022/11/21 02:04:35;;;;;;;192.05;48.92;;;;;;;1.01;100.00;100491.59;4927989;29;20197;-75
2022/11/21 02:07:05;;;;;;;158.60;48.08;;;;;;;1.03;100.00;100493.25;4927998;29;20043;-76
2022/11/21 02:09:33;;;;;;;185.57;49.95;;;;;;;1.02;100.00;100483.66;4928043;29;20040;-75
2022/11/21 02:12:04;;;;;;;154.48;46.90;;;;;;;1.00;100.00;100492.47;4936724;29;20376;-76
2022/11/21 02:14:34;;;;;;;182.10;50.30;;;;;;;1.09;100.00;100494.84;4931955;29;20127;-76
2022/11/21 02:17:04;;;;;;;175.23;47.78;;;;;;;1.07;100.00;100498.44;4927775;29;20051;-76
2022/11/21 02:20:06;;;;;;;158.35;45.28;;;;;;;1.08;100.00;100505.41;4927037;29;20134;-75
2022/11/21 02:22:53;;;;;;;151.20;46.28;;;;;;;1.07;100.00;100515.03;4919409;29;20082;-75
2022/11/21 02:25:21;;;;;;;192.57;49.50;;;;;;;1.09;100.00;100515.84;4939794;29;20048;-76
2022/11/21 02:27:49;;;;;;;162.23;44.65;;;;;;;1.01;100.00;100500.34;4939825;29;20058;-75
2022/11/21 02:30:16;;;;;;;185.77;49.17;;;;;;;1.06;100.00;100504.59;4927880;29;20043;-75
2022/11/21 02:32:46;;;;;;;161.85;46.20;;;;;;;1.10;100.00;100512.31;4930893;29;20067;-76
2022/11/21 02:35:17;;;;;;;205.85;51.78;;;;;;;1.24;100.00;100511.91;4909761;29;20047;-75
2022/11/21 02:37:50;;;;;;;196.43;50.78;;;;;;;1.20;100.00;100512.91;4927470;29;20052;-75
2022/11/21 02:40:21;;;;;;;171.40;46.25;;;;;;;1.19;100.00;100517.28;4940711;29;20040;-76
2022/11/21 02:43:05;;;;;;;178.93;47.33;;;;;;;1.10;100.00;100508.81;4927652;29;20065;-76
2022/11/21 02:45:36;;;;;;;172.10;46.75;;;;;;;1.13;100.00;100511.38;4934211;29;20042;-76
2022/11/21 02:48:02;;;;;;;182.82;49.45;;;;;;;1.26;100.00;100512.72;4927793;29;20071;-75
2022/11/21 02:50:47;;;;;;;195.95;49.13;;;;;;;1.32;100.00;100519.56;4909898;29;20515;-76
2022/11/21 02:53:16;;;;;;;176.73;46.78;;;;;;;1.25;100.00;100514.47;4926833;29;20101;-75
2022/11/21 02:55:42;;;;;;;164.30;46.47;;;;;;;1.23;100.00;100516.28;4927151;29;20047;-76
2022/11/21 02:58:08;;;;;;;159.65;49.15;;;;;;;1.31;100.00;100521.34;4909622;29;20099;-75
2022/11/21 03:00:36;;;;;;;190.10;51.38;;;;;;;1.20;100.00;100513.75;4922986;29;20075;-75
2022/11/21 03:03:02;;;;;;;165.63;47.38;;;;;;;1.18;100.00;100502.44;4927185;29;20044;-75
2022/11/21 03:05:28;;;;;;;194.35;47.65;;;;;;;1.19;100.00;100500.66;4926845;29;20043;-75
2022/11/21 03:07:54;;;;;;;181.57;47.25;;;;;;;1.24;100.00;100509.28;4927526;29;20076;-75
2022/11/21 03:10:19;;;;;;;164.32;45.00;;;;;;;1.14;100.00;100503.44;4927314;29;20095;-75
2022/11/21 03:13:10;;;;;;;162.45;45.22;;;;;;;1.25;100.00;100501.34;4931297;23;20468;31
2022/11/21 03:15:36;;;;;;;160.52;46.75;;;;;;;1.23;100.00;100497.06;4862875;29;20059;-75
2022/11/21 03:18:02;;;;;;;175.48;47.47;;;;;;;1.19;100.00;100491.03;4866410;29;20037;-75
2022/11/21 03:20:33;;;;;;;181.00;46.70;;;;;;;1.14;100.00;100481.56;4880711;29;20053;-75
2022/11/21 03:22:59;;;;;;;181.25;46.50;;;;;;;1.08;100.00;100474.75;4880665;29;20085;-76
2022/11/21 03:25:24;;;;;;;171.20;46.47;;;;;;;1.15;100.00;100472.78;4867047;29;20052;-75
2022/11/21 03:27:52;;;;;;;203.85;49.03;;;;;;;1.08;100.00;100463.38;4868464;29;20056;-74
2022/11/21 03:30:18;;;;;;;177.95;47.05;;;;;;;1.07;100.00;100482.69;4886094;29;20062;-75
2022/11/21 03:32:44;;;;;;;190.45;47.20;;;;;;;1.06;100.00;100476.56;4872222;29;20045;-75
2022/11/21 03:35:09;;;;;;;153.77;46.00;;;;;;;1.06;100.00;100479.19;4872329;29;20052;-75
2022/11/21 03:37:35;;;;;;;209.57;50.45;;;;;;;1.08;100.00;100477.38;4872186;29;20110;-75
2022/11/21 03:40:00;;;;;;;165.85;46.75;;;;;;;1.04;100.00;100473.97;4872186;29;20048;-76
2022/11/21 03:42:26;;;;;;;190.10;48.70;;;;;;;1.04;100.00;100470.50;4872541;29;20045;-76
2022/11/21 03:44:51;;;;;;;179.48;46.75;;;;;;;0.98;100.00;100468.91;4872302;29;20053;-76
2022/11/21 03:47:16;;;;;;;178.43;48.03;;;;;;;1.02;100.00;100464.44;4859055;29;20074;-75
2022/11/21 03:49:42;;;;;;;195.73;47.28;;;;;;;1.06;100.00;100467.84;4871961;29;20037;-75
2022/11/21 03:52:08;;;;;;;189.57;48.10;;;;;;;1.13;100.00;100458.84;4872373;29;20045;-75
2022/11/21 03:54:33;;;;;;;215.00;49.03;;;;;;;1.02;100.00;100457.41;4872492;29;20052;-76
2022/11/21 03:56:59;;;;;;;220.02;50.83;;;;;;;1.05;100.00;100453.81;4886037;29;20041;-76
2022/11/21 03:59:25;;;;;;;168.07;47.42;;;;;;;0.99;100.00;100461.91;4871946;29;20148;-75
2022/11/21 04:01:50;;;;;;;179.10;46.50;;;;;;;0.97;100.00;100466.34;4871419;29;20032;-76
2022/11/21 04:04:16;;;;;;;180.88;45.90;;;;;;;0.97;100.00;100458.47;4870785;29;20536;-75
2022/11/21 04:06:41;;;;;;;189.73;49.53;;;;;;;0.94;100.00;100466.41;4870063;29;20045;-75
2022/11/21 04:09:06;;;;;;;186.30;49.17;;;;;;;0.98;100.00;100461.03;4871195;29;20049;-75
2022/11/21 04:11:32;;;;;;;181.98;47.90;;;;;;;1.12;100.00;100468.50;4871260;29;20086;-76
2022/11/21 04:13:57;;;;;;;194.52;48.58;;;;;;;1.01;100.00;100476.72;4874937;29;20064;-75
2022/11/21 04:16:22;;;;;;;171.20;48.50;;;;;;;0.94;100.00;100469.03;4896042;29;20095;-76
2022/11/21 04:18:48;;;;;;;169.90;47.10;;;;;;;0.95;100.00;100462.88;4909039;29;20135;-75
2022/11/21 04:21:13;;;;;;;181.65;47.28;;;;;;;0.99;100.00;100473.25;4909062;29;20083;-74
2022/11/21 04:23:38;;;;;;;176.25;46.63;;;;;;;1.04;100.00;100468.72;4908086;29;20058;-75
2022/11/21 04:26:04;;;;;;;187.95;48.65;;;;;;;1.17;100.00;100469.22;4895796;29;20048;-76
2022/11/21 04:28:30;;;;;;;176.27;48.60;;;;;;;1.13;100.00;100469.34;4908760;29;20044;-79
2022/11/21 04:31:01;;;;;;;199.07;49.50;;;;;;;1.17;100.00;100471.84;4908775;29;20079;-75
2022/11/21 04:33:26;;;;;;;196.15;49.60;;;;;;;1.13;100.00;100478.09;4908582;29;20039;-75
2022/11/21 04:35:52;;;;;;;249.68;52.92;;;;;;;1.15;100.00;100480.66;4906664;29;20075;-75
2022/11/21 04:38:17;;;;;;;175.93;46.72;;;;;;;1.15;100.00;100476.25;4907316;29;20067;-75
2022/11/21 04:40:44;;;;;;;195.00;48.75;;;;;;;1.09;100.00;100476.47;4920423;29;20908;-75
2022/11/21 04:43:09;;;;;;;212.55;51.75;;;;;;;1.17;100.00;100471.84;4907322;29;20052;-75
2022/11/21 04:45:34;;;;;;;201.88;49.50;;;;;;;1.17;100.00;100471.00;4906403;29;20110;-76
2022/11/21 04:48:00;;;;;;;229.43;52.47;;;;;;;1.20;100.00;100460.38;4906505;29;20486;-74
2022/11/21 04:50:25;;;;;;;202.77;50.28;;;;;;;1.10;100.00;100464.19;4905926;29;20052;-75
2022/11/21 04:52:53;;;;;;;195.80;49.97;;;;;;;1.10;100.00;100464.19;4906151;29;20147;-75
2022/11/21 04:55:20;;;;;;;243.43;52.80;;;;;;;1.21;100.00;100472.63;4905383;29;20135;-76
2022/11/21 04:57:45;;;;;;;241.48;54.00;;;;;;;1.22;100.00;100462.06;4907871;29;20043;-75
2022/11/21 05:00:13;;;;;;;263.65;55.50;;;;;;;1.27;100.00;100467.16;4904119;29;20044;-76
2022/11/21 05:02:39;;;;;;;252.57;55.78;;;;;;;1.17;100.00;100471.00;4903927;29;20040;-75
2022/11/21 05:05:05;;;;;;;296.30;60.92;;;;;;;1.17;100.00;100457.88;4903796;29;20074;-75
2022/11/21 05:07:30;;;;;;;415.73;71.35;;;;;;;1.15;100.00;100463.13;4904623;29;20060;-74
2022/11/21 05:09:55;;;;;;;338.27;61.67;;;;;;;1.12;100.00;100458.00;4904054;29;20043;-75
2022/11/21 05:15:05;;;;;;;295.83;56.25;;;;;;;0.93;100.00;100451.59;4904696;29;20072;-75
2022/11/21 05:17:31;;;;;;;310.23;57.55;;;;;;;0.95;100.00;100442.75;4905745;29;20470;-75
2022/11/21 05:19:56;;;;;;;313.48;63.33;;;;;;;0.95;100.00;100448.00;4908365;29;20068;-75
2022/11/21 05:22:21;;;;;;;384.67;63.20;;;;;;;0.96;100.00;100455.00;4905419;29;20568;-75
2022/11/21 05:24:47;;;;;;;353.65;62.40;;;;;;;0.94;100.00;100437.56;4904467;29;20071;-74
2022/11/21 05:27:12;;;;;;;297.75;55.80;;;;;;;0.90;100.00;100431.53;4905155;29;20040;-74
2022/11/21 05:29:38;;;;;;;380.80;64.20;;;;;;;0.90;100.00;100442.03;4903307;29;20497;-74
2022/11/21 05:32:03;;;;;;;336.50;56.92;;;;;;;0.86;100.00;100427.31;4907677;29;20123;-75
2022/11/21 05:34:29;;;;;;;373.23;61.58;;;;;;;1.00;100.00;100445.22;4904207;29;20047;-75
2022/11/21 05:36:57;;;;;;;410.33;67.88;;;;;;;1.12;100.00;100444.00;4898156;29;20565;-75
2022/11/21 05:39:23;;;;;;;461.05;72.18;;;;;;;1.07;100.00;100433.66;4904450;29;20039;-75
2022/11/21 05:41:49;;;;;;;431.90;70.10;;;;;;;1.07;100.00;100432.78;4904822;29;20040;-75
2022/11/21 05:44:14;;;;;;;405.70;67.10;;;;;;;1.16;100.00;100443.03;4904150;29;20928;-75
2022/11/21 05:46:39;;;;;;;356.85;61.47;;;;;;;1.17;100.00;100449.97;4896387;29;20076;-75
2022/11/21 05:49:05;;;;;;;381.75;64.80;;;;;;;1.19;100.00;100453.41;4902777;29;20044;-75
2022/11/21 05:51:31;;;;;;;504.52;78.68;;;;;;;1.17;100.00;100445.59;4905339;29;20379;-74
2022/11/21 05:53:56;;;;;;;456.55;70.57;;;;;;;1.21;100.00;100443.72;4905038;29;20127;-74
2022/11/21 05:56:21;;;;;;;551.08;80.45;;;;;;;1.24;100.00;100441.00;4899070;29;20073;-74
2022/11/21 05:58:47;;;;;;;587.05;80.97;;;;;;;1.23;100.00;100434.88;4899227;29;20067;-75
2022/11/21 06:01:13;;;;;;;474.05;72.30;;;;;;;1.29;100.00;100431.19;4904897;29;20052;-74
2022/11/21 06:03:40;;;;;;;557.22;79.68;;;;;;;1.26;100.00;100429.53;4904986;29;20050;-75
2022/11/21 06:06:11;;;;;;;478.48;69.43;;;;;;;1.19;100.00;100428.00;4903402;29;20044;-74
2022/11/21 06:08:39;;;;;;;515.58;75.32;;;;;;;1.23;100.00;100428.78;4904265;29;20110;-74
2022/11/21 06:11:06;;;;;;;502.13;75.20;;;;;;;1.16;100.00;100420.25;4911710;29;20043;-74
2022/11/21 06:13:35;;;;;;;313.50;52.45;;;;;;;1.05;100.00;100409.19;4902704;29;20280;-75
2022/11/21 06:16:18;;;;;;;427.00;65.97;;;;;;;1.06;100.00;100408.31;4895991;29;20692;-75
2022/11/21 06:18:48;;;;;;;522.75;75.93;;;;;;;1.10;100.00;100406.44;4905706;29;20068;-75
2022/11/21 06:21:19;;;;;;;500.13;74.00;;;;;;;1.10;100.00;100407.28;4907967;29;20043;-74
2022/11/21 06:23:45;;;;;;;573.65;81.28;;;;;;;1.11;100.00;100401.16;4908801;29;20713;-75
2022/11/21 06:26:13;;;;;;;492.40;70.93;;;;;;;1.10;100.00;100407.28;4905837;29;20111;-73
2022/11/21 06:28:40;;;;;;;417.05;64.18;;;;;;;1.10;100.00;100398.56;4905751;29;20051;-75
2022/11/21 06:31:08;;;;;;;445.75;68.38;;;;;;;1.02;100.00;100398.81;4900901;29;20561;-74
2022/11/21 06:33:34;;;;;;;376.75;62.40;;;;;;;0.99;100.00;100389.25;4898303;29;20127;-73
2022/11/21 06:36:09;;;;;;;480.50;66.65;;;;;;;1.01;100.00;100390.06;4905830;29;20924;-76
2022/11/21 06:38:34;;;;;;;524.05;75.60;;;;;;;1.04;100.00;100389.97;4898554;29;20040;-74
2022/11/21 06:41:11;;;;;;;566.42;85.25;;;;;;;1.06;100.00;100381.22;4904439;29;20043;-75
2022/11/21 06:43:37;;;;;;;566.72;80.88;;;;;;;1.07;100.00;100382.91;4904276;29;20540;-74
2022/11/21 06:46:03;;;;;;;525.67;76.75;;;;;;;1.03;100.00;100390.88;4902276;29;20119;-73
2022/11/21 06:48:32;;;;;;;512.33;75.22;;;;;;;1.06;100.00;100396.97;4904639;29;20044;-75
2022/11/21 06:51:02;;;;;;;520.67;82.68;;;;;;;1.10;100.00;100404.66;4905132;29;20544;-75
2022/11/21 06:53:27;;;;;;;588.45;90.90;;;;;;;1.17;100.00;100400.94;4905438;29;20055;-75
2022/11/21 06:55:53;;;;;;;564.95;86.65;;;;;;;1.19;100.00;100401.75;4919592;29;20041;-75
2022/11/21 06:58:18;;;;;;;806.08;103.07;;;;;;;1.19;100.00;100404.38;4904974;29;20131;-75
2022/11/21 07:00:43;;;;;;;834.50;102.57;;;;;;;1.19;100.00;100395.63;4904896;29;20548;-75
2022/11/21 07:03:09;;;;;;;815.03;103.32;;;;;;;1.24;100.00;100405.09;4908544;29;20090;-74
2022/11/21 07:05:34;;;;;;;544.63;80.40;;;;;;;1.28;100.00;100398.81;4908627;29;20072;-75
2022/11/21 07:08:01;;;;;;;593.83;84.93;;;;;;;1.26;100.00;100399.81;4908365;29;20067;-75
2022/11/21 07:10:27;;;;;;;520.05;79.13;;;;;;;1.32;100.00;100396.13;4908768;29;20123;-74
2022/11/21 07:15:42;;;;;;;494.67;77.32;;;;;;;1.28;100.00;100390.94;4907758;29;20051;-74
2022/11/21 07:18:08;;;;;;;380.17;64.82;;;;;;;1.27;100.00;100389.25;4906772;29;20092;-74
2022/11/21 07:20:33;;;;;;;297.55;53.58;;;;;;;1.21;100.00;100388.59;4910146;29;21058;-75
2022/11/21 07:22:59;;;;;;;344.25;57.58;;;;;;;1.22;100.00;100383.28;4898248;29;20044;-76
2022/11/21 07:25:25;;;;;;;245.25;48.97;;;;;;;1.20;100.00;100377.19;4908331;29;20656;-75
2022/11/21 07:27:50;;;;;;;354.63;57.72;;;;;;;1.23;100.00;100382.38;4907782;29;20043;-75
2022/11/21 07:30:16;;;;;;;410.45;64.85;;;;;;;1.28;100.00;100379.59;4908172;29;20128;-75
2022/11/21 07:32:41;;;;;;;308.20;58.78;;;;;;;1.29;100.00;100381.31;4909682;29;20044;-75
2022/11/21 07:35:07;;;;;;;323.50;54.80;;;;;;;1.28;100.00;100382.22;4914258;29;20114;-75
2022/11/21 07:37:38;;;;;;;337.60;57.50;;;;;;;1.35;100.00;100378.47;4916821;29;20068;-75
2022/11/21 07:40:03;;;;;;;426.30;66.25;;;;;;;1.42;100.00;100384.41;4907507;29;20043;-76
2022/11/21 07:42:34;;;;;;;387.58;63.78;;;;;;;1.43;100.00;100380.84;4901647;29;20094;-76
2022/11/21 07:44:59;;;;;;;296.38;50.55;;;;;;;1.45;100.00;100389.53;4916801;29;20094;-76
2022/11/21 07:47:25;;;;;;;344.20;58.80;;;;;;;1.43;100.00;100386.09;4911018;29;20493;-76
2022/11/21 07:49:50;;;;;;;324.05;56.95;;;;;;;1.50;100.00;100383.22;4922949;29;20040;-74
2022/11/21 07:52:15;;;;;;;271.50;49.88;;;;;;;1.50;100.00;100379.72;4922412;29;20056;-76
2022/11/21 07:54:41;;;;;;;313.98;56.50;;;;;;;1.51;100.00;100361.31;4917165;29;20086;-76
2022/11/21 07:57:06;;;;;;;332.75;54.58;;;;;;;1.50;100.00;100361.34;4913045;29;20122;-76
2022/11/21 07:59:32;;;;;;;268.80;52.63;;;;;;;1.52;100.00;100370.03;4918411;29;20442;-76
2022/11/21 08:01:57;;;;;;;322.20;54.40;;;;;;;1.59;100.00;100370.69;4891246;29;20075;-76
2022/11/21 08:04:22;;;;;;;375.10;61.55;;;;;;;1.66;100.00;100377.47;4911280;29;20051;-75
2022/11/21 08:06:48;;;;;;;280.23;51.72;;;;;;;1.58;100.00;100371.59;4903625;29;20040;-76
2022/11/21 08:09:13;;;;;;;376.52;60.78;;;;;;;1.60;100.00;100361.88;4906244;29;20059;-76
2022/11/21 08:11:39;;;;;;;302.15;49.42;;;;;;;1.58;100.00;100355.84;4905798;29;20036;-76
2022/11/21 08:14:04;;;;;;;287.27;53.53;;;;;;;1.62;100.00;100358.31;4903236;29;20059;-76
2022/11/21 08:16:31;;;;;;;385.65;58.13;;;;;;;1.72;100.00;100358.84;4905388;29;20074;-77
2022/11/21 08:19:00;;;;;;;343.08;57.75;;;;;;;1.74;100.00;100351.75;4905157;29;20074;-76
2022/11/21 08:21:26;;;;;;;252.43;48.78;;;;;;;1.69;100.00;100349.28;4901876;29;20588;-76
2022/11/21 08:23:52;;;;;;;331.65;54.95;;;;;;;1.81;100.00;100343.63;4890385;29;20044;-76
2022/11/21 08:26:18;;;;;;;244.43;46.58;;;;;;;1.78;100.00;100345.50;4901912;29;20523;-76
2022/11/21 08:28:43;;;;;;;234.25;42.33;;;;;;;1.76;100.00;100340.28;4899182;29;20052;-75
2022/11/21 08:31:09;;;;;;;245.80;47.72;;;;;;;1.85;100.00;100332.97;4905496;29;20047;-76
2022/11/21 08:33:34;;;;;;;245.70;46.40;;;;;;;1.94;100.00;100332.66;4907295;29;20044;-76
2022/11/21 08:36:04;;;;;;;272.55;50.15;;;;;;;1.95;100.00;100331.72;4905484;29;20040;-76
2022/11/21 08:38:29;;;;;;;280.25;49.60;;;;;;;1.98;100.00;100342.16;4896324;29;20060;-75
2022/11/21 08:43:39;;;;;;;242.68;43.22;;;;;;;1.97;100.00;100336.03;4894368;29;20037;-75
2022/11/21 08:46:04;;;;;;;257.48;48.10;;;;;;;2.00;100.00;100321.91;4905702;29;20043;-76
2022/11/21 08:48:29;;;;;;;237.13;44.15;;;;;;;2.04;100.00;100320.88;4906952;29;20040;-76
2022/11/21 08:50:58;;;;;;;235.75;48.13;;;;;;;2.11;100.00;100319.75;4896012;29;20068;-76
2022/11/21 08:53:24;;;;;;;231.38;48.53;;;;;;;2.12;100.00;100310.94;4902470;29;20628;-75
2022/11/21 08:55:49;;;;;;;249.18;48.95;;;;;;;2.22;100.00;100312.31;4892515;29;20032;-76
2022/11/21 08:58:15;;;;;;;224.55;45.70;;;;;;;2.17;100.00;100310.78;4907180;29;20618;-75
2022/11/21 09:00:40;;;;;;;272.33;52.10;;;;;;;2.23;100.00;100308.78;4906865;29;20036;-75
2022/11/21 09:03:06;;;;;;;269.13;49.60;;;;;;;2.26;100.00;100306.03;4906746;29;20041;-75
2022/11/21 09:05:32;;;;;;;232.70;46.15;;;;;;;2.17;100.00;100306.38;4906840;29;20470;-74
2022/11/21 09:07:58;;;;;;;183.25;37.55;;;;;;;2.21;100.00;100293.94;4907130;29;20040;-76
2022/11/21 09:10:27;;;;;;;235.75;43.15;;;;;;;2.28;100.00;100287.56;4894738;29;20036;-75
2022/11/21 09:12:53;;;;;;;246.00;43.90;;;;;;;2.34;100.00;100285.53;4906329;29;20489;-75
2022/11/21 09:18:03;;;;;;;260.65;45.00;;;;;;;2.51;100.00;100289.28;4905833;29;20048;-76
2022/11/21 09:20:30;;;;;;;229.65;42.60;;;;;;;2.61;100.00;100288.03;4905532;29;20655;-76
2022/11/21 09:22:55;;;;;;;282.77;44.75;;;;;;;2.63;100.00;100280.06;4919633;29;20047;-75
2022/11/21 09:25:21;;;;;;;262.17;47.75;;;;;;;2.65;100.00;100286.97;4904832;29;20036;-76
2022/11/21 09:27:46;;;;;;;217.80;41.45;;;;;;;2.71;100.00;100288.50;4905694;29;20989;-75
2022/11/21 09:30:12;;;;;;;272.08;47.22;;;;;;;2.75;100.00;100290.09;4905332;29;20048;-76
2022/11/21 09:32:39;;;;;;;241.93;44.65;;;;;;;2.72;100.00;100287.59;4902411;29;20044;-75
2022/11/21 09:35:05;;;;;;;288.95;48.28;;;;;;;2.78;100.00;100295.25;4918550;29;20824;-76
2022/11/21 09:37:35;;;;;;;319.95;53.50;;;;;;;2.98;100.00;100284.75;4915789;29;20063;-74
2022/11/21 09:40:01;;;;;;;304.63;52.35;;;;;;;3.26;100.00;100278.31;4900886;29;20160;-75
2022/11/21 09:42:45;;;;;;;318.83;51.00;;;;;;;3.47;100.00;100273.94;4915513;29;20052;-75
2022/11/21 09:45:46;;;;;;;371.52;52.75;;;;;;;3.49;100.00;100269.44;4908555;29;20690;-75
2022/11/21 09:48:18;;;;;;;321.70;49.63;;;;;;;3.30;100.00;100266.75;4909585;29;20063;-74
2022/11/21 09:50:49;;;;;;;223.13;41.78;;;;;;;3.15;100.00;100262.13;4902603;29;20095;-76
2022/11/21 09:53:19;;;;;;;352.38;53.90;;;;;;;3.24;100.00;100257.31;4902519;29;20482;-76
2022/11/21 09:56:00;;;;;;;347.05;55.22;;;;;;;3.37;100.00;100253.25;4894558;29;20055;-75
2022/11/21 09:58:46;;;;;;;312.25;50.40;;;;;;;3.40;100.00;100246.13;4895864;29;20055;-76
2022/11/21 10:01:12;;;;;;;391.25;59.30;;;;;;;3.30;100.00;100250.94;4910965;29;20048;-74
2022/11/21 10:03:49;;;;;;;482.33;68.65;;;;;;;3.36;100.00;100241.00;4921600;29;20868;-74
2022/11/21 10:06:54;;;;;;;377.33;58.65;;;;;;;3.23;100.00;100218.72;4904209;29;20150;-74
2022/11/21 10:09:47;;;;;;;429.95;64.40;;;;;;;3.24;100.00;100212.53;4863787;29;20060;-74
2022/11/21 10:12:37;;;;;;;;;;;;;;;3.31;100.00;100218.38;4858929;29;20057;-73
2022/11/21 10:15:27;;;;;;;287.00;46.90;;;;;;;3.17;100.00;100208.47;4863669;29;19924;-75
2022/11/21 10:18:04;;;;;;;400.35;59.05;;;;;;;3.26;100.00;100221.25;4858272;29;20048;-76
2022/11/21 10:21:04;;;;;;;469.52;70.72;;;;;;;3.28;100.00;100215.91;4843355;29;20126;-76
2022/11/21 10:23:51;;;;;;;399.27;61.10;;;;;;;3.29;100.00;100209.69;4847764;29;20607;-74
2022/11/21 10:26:42;;;;;;;356.33;53.40;;;;;;;3.33;100.00;100198.13;4847738;29;20620;-73
2022/11/21 10:29:22;;;;;;;329.30;52.38;;;;;;;3.45;100.00;100194.91;4862578;29;20510;-73
2022/11/21 10:31:49;;;;;;;392.67;57.72;;;;;;;3.59;100.00;100196.94;4856888;29;20098;-73
2022/11/21 10:34:21;;;;;;;340.55;54.60;;;;;;;3.62;100.00;100197.69;4864027;29;20088;-74
2022/11/21 10:36:51;;;;;;;330.60;55.73;;;;;;;3.51;100.00;100196.44;4868038;29;20068;-74
2022/11/21 10:39:36;;;;;;;369.15;55.95;;;;;;;3.53;100.00;100203.34;4867615;29;20561;-74
2022/11/21 10:42:23;;;;;;;319.92;49.13;;;;;;;3.54;100.00;100193.66;4860355;29;20148;-73
2022/11/21 10:47:36;;;;;;;345.98;51.30;;;;;;;3.58;100.00;100187.34;4904282;29;20588;-72
2022/11/21 10:50:08;;;;;;;421.25;60.40;;;;;;;3.67;100.00;100184.28;4918015;29;20391;-77
2022/11/21 10:52:38;;;;;;;486.88;69.30;;;;;;;3.85;100.00;100175.50;4891234;29;20044;-74
2022/11/21 10:55:03;;;;;;;403.45;58.45;;;;;;;3.85;100.00;100180.78;4903792;29;20079;-73
2022/11/21 10:57:40;;;;;;;452.25;66.78;;;;;;;3.93;100.00;100172.53;4902456;29;20044;-74
2022/11/21 11:00:11;;;;;;;485.88;68.35;;;;;;;3.95;100.00;100170.66;4904028;29;20370;-75
2022/11/21 11:03:03;;;;;;;364.98;61.17;;;;;;;3.99;100.00;100172.22;4899224;29;20044;-74
2022/11/21 11:05:31;;;;;;;399.90;61.73;;;;;;;4.08;100.00;100171.81;4898454;29;20828;-75
2022/11/21 11:08:09;;;;;;;386.10;58.78;;;;;;;3.91;100.00;100155.91;4917776;29;20246;-75
2022/11/21 11:10:36;;;;;;;429.95;62.17;;;;;;;3.94;100.00;100150.50;4917620;29;20834;-74
2022/11/21 11:16:03;;;;;;;332.27;53.05;;;;;;;3.99;100.00;100145.00;4900156;29;20039;-74
2022/11/21 11:18:30;;;;;;;397.58;59.97;;;;;;;4.08;100.00;100149.84;4903311;29;20122;-74
2022/11/21 11:21:13;;;;;;;336.55;56.90;;;;;;;4.04;100.00;100143.00;4901656;29;20079;-74
2022/11/21 11:23:38;;;;;;;332.90;52.22;;;;;;;4.12;100.00;100135.59;4893418;29;20059;-73
2022/11/21 11:26:26;;;;;;;382.38;65.07;;;;;;;4.23;100.00;100130.63;4900868;29;20481;-75